createdAt,value
2022-08-28T00:00:42.341Z,13.70
2022-08-28T00:03:12.017Z,16.08
2022-08-28T00:05:40.265Z,12.60
2022-08-28T00:08:08.007Z,20.30
2022-08-28T00:10:35.494Z,17.33
2022-08-28T00:13:03.050Z,12.93
2022-08-28T00:15:34.070Z,12.23
2022-08-28T00:18:03.624Z,13.45
2022-08-28T00:20:32.534Z,11.18
2022-08-28T00:23:00.403Z,10.90
2022-08-28T00:25:29.025Z,13.23
2022-08-28T00:27:57.621Z,12.35
2022-08-28T00:30:27.800Z,12.63
2022-08-28T00:32:56.073Z,14.18
2022-08-28T00:35:24.168Z,14.95
2022-08-28T00:37:51.838Z,15.60
2022-08-28T00:40:30.677Z,11.98
2022-08-28T00:43:01.419Z,17.00
2022-08-28T00:45:29.292Z,11.50
2022-08-28T00:47:56.536Z,10.80
2022-08-28T00:50:25.232Z,12.80
2022-08-28T00:52:54.845Z,13.20
2022-08-28T00:55:23.663Z,10.70
2022-08-28T00:57:53.188Z,9.02
2022-08-28T01:00:22.881Z,15.77
2022-08-28T01:02:50.378Z,12.90
2022-08-28T01:05:18.064Z,16.05
2022-08-28T01:07:46.058Z,12.82
2022-08-28T01:10:16.772Z,18.73
2022-08-28T01:12:44.445Z,14.55
2022-08-28T01:15:14.414Z,13.18
2022-08-28T01:17:44.102Z,12.33
2022-08-28T01:20:14.236Z,19.20
2022-08-28T01:22:52.031Z,14.40
2022-08-28T01:25:20.780Z,14.95
2022-08-28T01:27:48.021Z,16.80
2022-08-28T01:30:17.552Z,15.70
2022-08-28T01:32:47.427Z,12.40
2022-08-28T01:35:16.191Z,14.38
2022-08-28T01:37:43.787Z,13.30
2022-08-28T01:40:12.556Z,10.80
2022-08-28T01:42:43.969Z,20.25
2022-08-28T01:45:12.459Z,15.98
2022-08-28T01:47:40.352Z,13.13
2022-08-28T01:50:09.338Z,8.13
2022-08-28T01:52:36.648Z,11.77
2022-08-28T01:55:05.845Z,15.25
2022-08-28T01:57:33.400Z,15.38
2022-08-28T02:00:00.696Z,13.25
2022-08-28T02:02:28.121Z,16.08
2022-08-28T02:04:55.398Z,13.07
2022-08-28T02:07:22.545Z,10.98
2022-08-28T02:09:49.816Z,16.25
2022-08-28T02:12:17.738Z,12.68
2022-08-28T02:14:46.191Z,14.07
2022-08-28T02:17:13.413Z,11.27
2022-08-28T02:19:40.791Z,11.80
2022-08-28T02:22:09.390Z,15.73
2022-08-28T02:24:37.180Z,15.90
2022-08-28T02:27:04.734Z,11.90
2022-08-28T02:29:32.646Z,16.23
2022-08-28T02:31:59.799Z,13.95
2022-08-28T02:34:27.197Z,17.70
2022-08-28T02:36:54.947Z,12.50
2022-08-28T02:39:22.250Z,12.75
2022-08-28T02:41:49.553Z,12.65
2022-08-28T02:44:17.335Z,11.65
2022-08-28T02:46:44.608Z,12.05
2022-08-28T02:49:11.692Z,11.55
2022-08-28T02:51:38.887Z,11.63
2022-08-28T02:54:06.340Z,18.60
2022-08-28T02:56:34.367Z,11.00
2022-08-28T02:59:01.575Z,12.27
2022-08-28T03:01:28.965Z,12.27
2022-08-28T03:03:56.165Z,10.82
2022-08-28T03:06:23.391Z,10.00
2022-08-28T03:08:50.744Z,13.38
2022-08-28T03:11:18.154Z,11.02
2022-08-28T03:13:45.661Z,15.70
2022-08-28T03:16:13.046Z,16.75
2022-08-28T03:18:40.715Z,14.20
2022-08-28T03:21:08.244Z,10.68
2022-08-28T03:23:35.534Z,11.93
2022-08-28T03:26:05.352Z,16.98
2022-08-28T03:28:43.079Z,9.65
2022-08-28T03:31:11.844Z,13.77
2022-08-28T03:33:42.534Z,18.58
2022-08-28T03:36:11.242Z,13.70
2022-08-28T03:38:38.891Z,12.13
2022-08-28T03:41:10.536Z,13.82
2022-08-28T03:43:38.035Z,16.40
2022-08-28T03:46:06.416Z,21.50
2022-08-28T03:48:37.654Z,14.88
2022-08-28T03:53:33.084Z,14.25
2022-08-28T03:56:00.922Z,11.57
2022-08-28T03:58:28.590Z,14.63
2022-08-28T04:00:55.947Z,13.63
2022-08-28T04:03:23.643Z,10.38
2022-08-28T04:05:52.002Z,13.45
2022-08-28T04:08:20.020Z,17.30
2022-08-28T04:10:47.482Z,12.50
2022-08-28T04:13:16.141Z,11.38
2022-08-28T04:15:43.518Z,7.75
2022-08-28T04:18:10.954Z,9.65
2022-08-28T04:20:38.988Z,7.13
2022-08-28T04:23:08.743Z,10.65
2022-08-28T04:25:35.914Z,11.75
2022-08-28T04:28:03.440Z,12.05
2022-08-28T04:30:30.647Z,12.23
2022-08-28T04:32:58.331Z,19.05
2022-08-28T04:35:27.749Z,18.35
2022-08-28T04:37:58.754Z,14.63
2022-08-28T04:42:53.481Z,10.20
2022-08-28T04:45:21.962Z,15.25
2022-08-28T04:47:49.354Z,12.60
2022-08-28T04:50:16.657Z,16.20
2022-08-28T04:52:44.029Z,8.27
2022-08-28T04:55:11.520Z,9.45
2022-08-28T04:57:38.877Z,9.52
2022-08-28T05:00:07.499Z,15.98
2022-08-28T05:02:34.751Z,14.18
2022-08-28T05:05:03.670Z,7.20
2022-08-28T05:07:31.392Z,15.32
2022-08-28T05:09:58.799Z,13.70
2022-08-28T05:12:26.675Z,18.33
2022-08-28T05:14:54.087Z,9.52
2022-08-28T05:17:21.340Z,26.48
2022-08-28T05:19:48.500Z,31.92
2022-08-28T05:22:16.297Z,18.67
2022-08-28T05:24:43.438Z,13.50
2022-08-28T05:27:10.880Z,14.35
2022-08-28T05:29:38.150Z,15.77
2022-08-28T05:32:05.569Z,9.73
2022-08-28T05:34:32.687Z,10.65
2022-08-28T05:37:00.046Z,11.23
2022-08-28T05:39:27.149Z,13.98
2022-08-28T05:41:54.585Z,11.57
2022-08-28T05:44:22.103Z,13.88
2022-08-28T05:46:49.340Z,15.88
2022-08-28T05:49:18.550Z,9.80
2022-08-28T05:51:46.519Z,17.08
2022-08-28T05:54:14.920Z,14.38
2022-08-28T05:56:42.649Z,15.30
2022-08-28T05:59:10.841Z,20.80
2022-08-28T06:01:42.745Z,15.73
2022-08-28T06:04:11.970Z,22.42
2022-08-28T06:06:41.337Z,18.80
2022-08-28T06:09:15.933Z,18.65
2022-08-28T06:11:46.286Z,19.35
2022-08-28T06:14:17.392Z,20.17
2022-08-28T06:16:45.954Z,19.85
2022-08-28T06:19:13.921Z,21.63
2022-08-28T06:21:41.672Z,17.38
2022-08-28T06:24:09.528Z,17.88
2022-08-28T06:26:36.877Z,24.05
2022-08-28T06:29:05.976Z,13.57
2022-08-28T06:31:33.925Z,12.13
2022-08-28T06:34:01.752Z,10.88
2022-08-28T06:36:30.613Z,25.98
2022-08-28T06:38:58.830Z,9.48
2022-08-28T06:41:27.392Z,12.13
2022-08-28T06:43:55.188Z,12.63
2022-08-28T06:46:23.019Z,20.00
2022-08-28T06:48:50.505Z,16.42
2022-08-28T06:51:18.008Z,13.60
2022-08-28T06:53:47.006Z,8.60
2022-08-28T06:56:25.689Z,10.93
2022-08-28T06:58:54.173Z,13.00
2022-08-28T07:01:24.212Z,14.75
2022-08-28T07:03:52.619Z,13.77
2022-08-28T07:06:22.046Z,13.35
2022-08-28T07:08:49.354Z,11.63
2022-08-28T07:11:22.050Z,12.20
2022-08-28T07:13:53.988Z,15.15
2022-08-28T07:16:22.257Z,13.93
2022-08-28T07:18:49.682Z,10.45
2022-08-28T07:21:17.366Z,7.63
2022-08-28T07:23:46.220Z,7.05
2022-08-28T07:26:15.473Z,15.35
2022-08-28T07:28:42.662Z,10.02
2022-08-28T07:31:17.306Z,8.23
2022-08-28T07:33:44.956Z,7.28
2022-08-28T07:36:15.772Z,11.15
2022-08-28T07:38:47.810Z,9.98
2022-08-28T07:41:19.817Z,12.23
2022-08-28T07:44:06.010Z,9.05
2022-08-28T07:46:33.672Z,17.52
2022-08-28T07:49:01.436Z,11.35
2022-08-28T07:51:28.971Z,10.27
2022-08-28T07:53:59.618Z,15.27
2022-08-28T07:56:29.639Z,9.43
2022-08-28T07:59:01.338Z,7.43
2022-08-28T08:01:30.769Z,6.80
2022-08-28T08:04:01.898Z,7.70
2022-08-28T08:06:34.396Z,7.32
2022-08-28T08:09:02.542Z,8.50
2022-08-28T08:11:32.629Z,10.82
2022-08-28T08:14:05.438Z,10.48
2022-08-28T08:16:34.753Z,9.95
2022-08-28T08:19:10.269Z,9.23
2022-08-28T08:21:37.616Z,10.73
2022-08-28T08:24:05.738Z,11.88
2022-08-28T08:26:33.502Z,9.25
2022-08-28T08:29:00.850Z,9.20
2022-08-28T08:31:29.853Z,12.05
2022-08-28T08:33:58.214Z,6.32
2022-08-28T08:36:26.485Z,12.10
2022-08-28T08:38:59.584Z,6.38
2022-08-28T08:41:51.219Z,7.32
2022-08-28T08:46:45.850Z,6.30
2022-08-28T08:49:18.534Z,8.15
2022-08-28T08:51:53.699Z,8.20
2022-08-28T08:54:21.741Z,15.90
2022-08-28T08:56:50.211Z,6.10
2022-08-28T08:59:22.643Z,8.07
2022-08-28T09:02:05.436Z,10.38
2022-08-28T09:04:41.156Z,7.43
2022-08-28T09:07:17.343Z,6.65
2022-08-28T09:09:47.441Z,6.65
2022-08-28T09:12:42.922Z,8.50
2022-08-28T09:15:13.915Z,9.15
2022-08-28T09:17:44.825Z,6.72
2022-08-28T09:20:15.016Z,7.18
2022-08-28T09:22:46.725Z,7.65
2022-08-28T09:25:33.792Z,3.55
2022-08-28T09:28:08.431Z,6.03
2022-08-28T09:30:35.974Z,10.70
2022-08-28T09:33:03.476Z,5.05
2022-08-28T09:35:32.779Z,7.00
2022-08-28T09:38:20.241Z,6.43
2022-08-28T09:41:09.780Z,9.70
2022-08-28T09:43:38.115Z,6.18
2022-08-28T09:46:08.849Z,9.52
2022-08-28T09:48:41.326Z,6.57
2022-08-28T09:51:10.716Z,6.57
2022-08-28T09:53:44.254Z,8.88
2022-08-28T09:56:16.650Z,5.43
2022-08-28T09:58:52.162Z,5.55
2022-08-28T10:01:45.110Z,7.90
2022-08-28T10:04:33.115Z,9.80
2022-08-28T10:07:13.650Z,7.97
2022-08-28T10:09:56.030Z,6.25
2022-08-28T10:12:43.728Z,6.13
2022-08-28T10:15:16.178Z,12.93
2022-08-28T10:18:01.995Z,7.50
2022-08-28T10:20:49.380Z,5.32
2022-08-28T10:23:31.265Z,8.63
2022-08-28T10:26:18.635Z,8.18
2022-08-28T10:28:56.702Z,5.60
2022-08-28T10:31:36.329Z,7.30
2022-08-28T10:34:11.383Z,8.57
2022-08-28T10:36:38.903Z,6.15
2022-08-28T10:39:15.023Z,5.60
2022-08-28T10:42:03.263Z,8.30
2022-08-28T10:44:37.394Z,5.35
2022-08-28T10:47:06.220Z,4.32
2022-08-28T10:49:41.605Z,6.53
2022-08-28T10:52:08.944Z,5.50
2022-08-28T10:54:42.142Z,5.60
2022-08-28T10:57:12.195Z,6.18
2022-08-28T10:59:42.117Z,6.82
2022-08-28T11:04:37.503Z,5.47
2022-08-28T11:07:07.542Z,4.93
2022-08-28T11:09:41.253Z,6.25
2022-08-28T11:12:17.523Z,4.60
2022-08-28T11:14:48.604Z,4.20
2022-08-28T11:17:22.719Z,4.30
2022-08-28T11:19:59.157Z,4.90
2022-08-28T11:22:41.301Z,6.57
2022-08-28T11:25:10.005Z,6.07
2022-08-28T11:27:38.586Z,5.97
2022-08-28T11:30:11.753Z,7.68
2022-08-28T11:32:39.108Z,4.60
2022-08-28T11:35:33.834Z,4.38
2022-08-28T11:38:01.385Z,4.57
2022-08-28T11:40:34.398Z,4.55
2022-08-28T11:43:16.983Z,6.97
2022-08-28T11:45:47.783Z,5.25
2022-08-28T11:48:23.861Z,4.97
2022-08-28T11:50:55.869Z,4.47
2022-08-28T11:53:26.065Z,5.60
2022-08-28T11:56:08.499Z,5.10
2022-08-28T11:58:45.378Z,6.00
2022-08-28T12:01:14.370Z,4.97
2022-08-28T12:03:43.476Z,3.88
2022-08-28T12:06:11.895Z,6.57
2022-08-28T12:08:45.135Z,6.43
2022-08-28T12:11:32.432Z,6.32
2022-08-28T12:13:59.949Z,6.72
2022-08-28T12:16:27.339Z,3.83
2022-08-28T12:18:54.874Z,3.10
2022-08-28T12:21:23.757Z,3.35
2022-08-28T12:23:58.984Z,4.18
2022-08-28T12:26:29.974Z,4.70
2022-08-28T12:29:02.161Z,4.55
2022-08-28T12:32:00.292Z,8.35
2022-08-28T12:34:30.435Z,7.65
2022-08-28T12:36:59.302Z,6.63
2022-08-28T12:39:26.982Z,4.30
2022-08-28T12:41:54.200Z,3.17
2022-08-28T12:44:26.412Z,3.28
2022-08-28T12:46:54.562Z,3.80
2022-08-28T12:49:33.894Z,5.72
2022-08-28T12:52:08.812Z,4.18
2022-08-28T12:54:36.207Z,4.28
2022-08-28T12:57:08.230Z,3.90
2022-08-28T12:59:37.665Z,7.70
2022-08-28T13:02:12.620Z,3.40
2022-08-28T13:05:05.848Z,4.53
2022-08-28T13:07:35.983Z,3.80
2022-08-28T13:10:23.017Z,3.13
2022-08-28T13:13:05.895Z,4.90
2022-08-28T13:15:43.637Z,6.30
2022-08-28T13:18:33.018Z,4.28
2022-08-28T13:21:12.386Z,4.97
2022-08-28T13:23:40.319Z,5.87
2022-08-28T13:26:07.933Z,3.50
2022-08-28T13:28:39.751Z,3.08
2022-08-28T13:31:07.396Z,3.55
2022-08-28T13:33:34.694Z,6.50
2022-08-28T13:36:19.537Z,3.78
2022-08-28T13:38:46.734Z,5.47
2022-08-28T13:41:14.192Z,5.82
2022-08-28T13:43:47.937Z,2.97
2022-08-28T13:46:15.594Z,7.95
2022-08-28T13:48:42.757Z,5.32
2022-08-28T13:51:12.024Z,3.75
2022-08-28T13:53:47.333Z,5.68
2022-08-28T13:56:14.932Z,5.38
2022-08-28T13:58:42.365Z,3.25
2022-08-28T14:01:10.576Z,6.20
2022-08-28T14:03:38.937Z,3.25
2022-08-28T14:06:09.197Z,4.35
2022-08-28T14:11:04.412Z,3.15
2022-08-28T14:13:31.975Z,2.78
2022-08-28T14:15:59.206Z,6.78
2022-08-28T14:18:28.302Z,4.03
2022-08-28T14:20:55.494Z,6.22
2022-08-28T14:23:23.128Z,3.88
2022-08-28T14:25:50.715Z,5.22
2022-08-28T14:28:19.030Z,5.18
2022-08-28T14:30:50.738Z,7.38
2022-08-28T14:33:20.804Z,6.82
2022-08-28T14:35:48.917Z,7.50
2022-08-28T14:38:16.645Z,7.18
2022-08-28T14:40:45.103Z,5.05
2022-08-28T14:43:13.601Z,3.97
2022-08-28T14:45:48.280Z,5.45
2022-08-28T14:48:17.442Z,2.95
2022-08-28T14:50:48.714Z,2.60
2022-08-28T14:53:17.045Z,2.83
2022-08-28T14:55:46.217Z,2.75
2022-08-28T14:58:13.433Z,6.45
2022-08-28T15:00:45.616Z,3.47
2022-08-28T15:03:13.977Z,6.28
2022-08-28T15:05:41.504Z,4.38
2022-08-28T15:08:09.895Z,4.57
2022-08-28T15:10:42.171Z,6.18
2022-08-28T15:13:15.162Z,5.28
2022-08-28T15:15:47.512Z,4.22
2022-08-28T15:18:17.895Z,4.13
2022-08-28T15:20:48.128Z,4.32
2022-08-28T15:23:15.955Z,4.78
2022-08-28T15:25:43.758Z,5.13
2022-08-28T15:28:14.311Z,2.88
2022-08-28T15:30:45.464Z,4.18
2022-08-28T15:33:16.660Z,2.45
2022-08-28T15:35:45.327Z,2.80
2022-08-28T15:38:12.570Z,4.00
2022-08-28T15:41:01.477Z,3.67
2022-08-28T15:43:29.411Z,2.95
2022-08-28T15:45:56.742Z,4.03
2022-08-28T15:48:24.242Z,5.50
2022-08-28T15:50:51.819Z,4.68
2022-08-28T15:53:22.204Z,3.90
2022-08-28T15:55:55.409Z,4.03
2022-08-28T15:58:22.766Z,3.65
2022-08-28T16:00:50.494Z,4.15
2022-08-28T16:03:17.894Z,3.17
2022-08-28T16:05:45.672Z,3.30
2022-08-28T16:08:12.838Z,3.55
2022-08-28T16:10:41.110Z,2.78
2022-08-28T16:13:08.901Z,6.88
2022-08-28T16:15:36.213Z,4.35
2022-08-28T16:18:08.712Z,3.20
2022-08-28T16:20:36.811Z,6.38
2022-08-28T16:23:04.204Z,3.25
2022-08-28T16:25:31.552Z,5.57
2022-08-28T16:28:02.167Z,2.72
2022-08-28T16:30:29.647Z,4.10
2022-08-28T16:32:57.198Z,5.25
2022-08-28T16:35:24.862Z,3.60
2022-08-28T16:37:52.479Z,5.63
2022-08-28T16:40:21.072Z,3.25
2022-08-28T16:42:51.682Z,2.78
2022-08-28T16:45:19.585Z,3.63
2022-08-28T16:47:46.788Z,2.60
2022-08-28T16:50:14.819Z,5.25
2022-08-28T16:52:42.325Z,3.13
2022-08-28T16:55:10.274Z,2.40
2022-08-28T16:57:39.785Z,4.30
2022-08-28T17:00:13.478Z,2.83
2022-08-28T17:02:41.077Z,6.95
2022-08-28T17:05:17.197Z,6.85
2022-08-28T17:07:49.802Z,2.90
2022-08-28T17:10:19.024Z,5.85
2022-08-28T17:12:48.938Z,5.97
2022-08-28T17:15:16.406Z,4.38
2022-08-28T17:17:44.952Z,3.38
2022-08-28T17:20:33.485Z,3.42
2022-08-28T17:23:01.386Z,8.05
2022-08-28T17:25:28.589Z,4.93
2022-08-28T17:27:55.871Z,4.45
2022-08-28T17:30:23.533Z,3.42
2022-08-28T17:32:51.941Z,4.13
2022-08-28T17:35:19.141Z,5.75
2022-08-28T17:37:46.712Z,3.33
2022-08-28T17:40:16.760Z,3.78
2022-08-28T17:42:45.711Z,3.53
2022-08-28T17:45:13.917Z,5.40
2022-08-28T17:47:43.147Z,2.75
2022-08-28T17:50:10.599Z,5.93
2022-08-28T17:52:38.038Z,3.88
2022-08-28T17:55:05.518Z,4.18
2022-08-28T17:57:34.762Z,4.45
2022-08-28T18:00:05.227Z,3.53
2022-08-28T18:02:33.048Z,2.78
2022-08-28T18:05:01.786Z,5.57
2022-08-28T18:07:29.982Z,4.80
2022-08-28T18:09:59.464Z,3.97
2022-08-28T18:12:26.692Z,2.90
2022-08-28T18:14:54.116Z,3.90
2022-08-28T18:17:21.560Z,4.90
2022-08-28T18:19:48.897Z,4.43
2022-08-28T18:22:16.236Z,7.85
2022-08-28T18:24:43.986Z,5.43
2022-08-28T18:27:11.217Z,5.03
2022-08-28T18:29:39.684Z,5.25
2022-08-28T18:32:07.769Z,4.95
2022-08-28T18:34:35.275Z,4.78
2022-08-28T18:37:05.126Z,3.28
2022-08-28T18:39:32.592Z,5.72
2022-08-28T18:42:00.074Z,5.53
2022-08-28T18:44:27.339Z,3.70
2022-08-28T18:46:54.621Z,5.15
2022-08-28T18:49:23.108Z,2.90
2022-08-28T18:51:50.368Z,4.35
2022-08-28T18:54:18.993Z,6.18
2022-08-28T18:56:46.426Z,3.30
2022-08-28T18:59:15.841Z,5.03
2022-08-28T19:01:43.270Z,5.78
2022-08-28T19:04:10.635Z,2.83
2022-08-28T19:06:37.818Z,3.58
2022-08-28T19:09:05.660Z,3.33
2022-08-28T19:11:32.907Z,4.50
2022-08-28T19:14:04.107Z,8.10
2022-08-28T19:16:32.117Z,7.15
2022-08-28T19:19:02.486Z,7.72
2022-08-28T19:21:30.364Z,5.47
2022-08-28T19:23:57.911Z,6.40
2022-08-28T19:26:25.948Z,5.40
2022-08-28T19:28:55.327Z,4.05
2022-08-28T19:31:23.495Z,4.68
2022-08-28T19:33:52.059Z,5.75
2022-08-28T19:36:19.345Z,3.33
2022-08-28T19:38:46.802Z,5.57
2022-08-28T19:41:16.636Z,4.07
2022-08-28T19:43:44.806Z,5.32
2022-08-28T19:46:14.073Z,7.35
2022-08-28T19:48:50.409Z,8.93
2022-08-28T19:51:23.189Z,4.97
2022-08-28T19:53:58.653Z,6.75
2022-08-28T19:56:27.645Z,10.88
2022-08-28T19:58:56.521Z,5.13
2022-08-28T20:01:23.911Z,5.47
2022-08-28T20:03:51.346Z,4.63
2022-08-28T20:06:19.233Z,4.13
2022-08-28T20:08:46.578Z,6.63
2022-08-28T20:11:24.604Z,3.05
2022-08-28T20:13:53.043Z,3.45
2022-08-28T20:16:20.386Z,5.90
2022-08-28T20:18:50.357Z,5.30
2022-08-28T20:21:22.883Z,5.22
2022-08-28T20:24:04.785Z,4.25
2022-08-28T20:26:35.729Z,4.35
2022-08-28T20:29:03.462Z,7.38
2022-08-28T20:31:30.690Z,7.90
2022-08-28T20:33:57.870Z,5.43
2022-08-28T20:36:27.366Z,7.07
2022-08-28T20:38:54.857Z,3.50
2022-08-28T20:41:22.665Z,4.10
2022-08-28T20:43:50.317Z,5.78
2022-08-28T20:46:17.651Z,4.43
2022-08-28T20:48:45.349Z,5.25
2022-08-28T20:51:13.026Z,5.82
2022-08-28T20:53:40.262Z,11.63
2022-08-28T20:56:09.287Z,7.45
2022-08-28T20:58:37.954Z,5.78
2022-08-28T21:01:05.664Z,3.17
2022-08-28T21:03:35.650Z,9.52
2022-08-28T21:06:02.842Z,6.43
2022-08-28T21:08:31.310Z,6.57
2022-08-28T21:10:59.775Z,2.78
2022-08-28T21:13:29.989Z,5.40
2022-08-28T21:15:57.353Z,4.50
2022-08-28T21:18:24.527Z,4.75
2022-08-28T21:20:51.986Z,6.40
2022-08-28T21:23:20.655Z,4.75
2022-08-28T21:25:48.436Z,6.85
2022-08-28T21:28:16.083Z,4.80
2022-08-28T21:30:43.534Z,10.05
2022-08-28T21:33:10.996Z,5.15
2022-08-28T21:35:40.525Z,4.57
2022-08-28T21:38:07.945Z,8.32
2022-08-28T21:40:36.403Z,7.70
2022-08-28T21:43:03.761Z,5.68
2022-08-28T21:45:31.022Z,5.13
2022-08-28T21:47:58.375Z,6.80
2022-08-28T21:50:29.126Z,3.00
2022-08-28T21:52:56.948Z,4.07
2022-08-28T21:55:24.964Z,9.63
2022-08-28T21:57:52.170Z,5.32
2022-08-28T22:00:20.952Z,7.95
2022-08-28T22:02:48.645Z,5.75
2022-08-28T22:05:16.835Z,8.25
2022-08-28T22:07:45.088Z,6.80
2022-08-28T22:10:12.699Z,6.38
2022-08-28T22:12:40.058Z,6.38
2022-08-28T22:15:07.504Z,11.55
2022-08-28T22:17:36.848Z,6.93
2022-08-28T22:20:04.743Z,5.05
2022-08-28T22:22:50.724Z,9.82
2022-08-28T22:25:18.060Z,5.45
2022-08-28T22:27:46.663Z,5.68
2022-08-28T22:30:13.944Z,5.07
2022-08-28T22:32:41.252Z,7.68
2022-08-28T22:35:09.528Z,6.93
2022-08-28T22:37:37.814Z,9.55
2022-08-28T22:40:09.440Z,7.28
2022-08-28T22:42:41.080Z,6.05
2022-08-28T22:45:09.597Z,5.05
2022-08-28T22:47:36.907Z,6.68
2022-08-28T22:50:04.732Z,8.77
2022-08-28T22:52:32.852Z,6.18
2022-08-28T22:55:00.156Z,6.05
2022-08-28T22:57:27.436Z,10.40
2022-08-28T22:59:54.833Z,5.60
2022-08-28T23:02:22.076Z,3.95
2022-08-28T23:04:54.473Z,4.78
2022-08-28T23:07:21.593Z,3.85
2022-08-28T23:09:49.458Z,5.40
2022-08-28T23:12:16.642Z,8.57
2022-08-28T23:14:48.229Z,7.13
2022-08-28T23:17:16.931Z,6.32
2022-08-28T23:19:44.367Z,7.18
2022-08-28T23:22:13.844Z,7.47
2022-08-28T23:24:41.165Z,4.30
2022-08-28T23:27:34.311Z,5.43
2022-08-28T23:29:56.127Z,6.20
2022-08-28T23:32:23.386Z,6.95
2022-08-28T23:34:51.038Z,6.45
2022-08-28T23:37:18.275Z,7.63
2022-08-28T23:39:45.712Z,10.02
2022-08-28T23:42:13.144Z,6.32
2022-08-28T23:44:40.486Z,10.77
2022-08-28T23:47:07.885Z,7.47
2022-08-28T23:49:42.632Z,6.35
2022-08-28T23:52:10.304Z,6.97
2022-08-28T23:54:39.591Z,8.57
2022-08-28T23:57:08.405Z,7.35
2022-08-28T23:59:36.924Z,8.23
